createdAt,value
2023-02-22T00:00:46.360Z,9.93
2023-02-22T00:03:32.456Z,13.80
2023-02-22T00:06:07.264Z,12.40
2023-02-22T00:08:43.404Z,13.03
2023-02-22T00:11:11.280Z,12.23
2023-02-22T00:13:45.371Z,9.43
2023-02-22T00:16:24.365Z,10.40
2023-02-22T00:19:00.396Z,8.07
2023-02-22T00:21:34.406Z,10.03
2023-02-22T00:24:17.042Z,9.07
2023-02-22T00:26:50.398Z,8.67
2023-02-22T00:29:18.149Z,10.67
2023-02-22T00:31:52.489Z,9.47
2023-02-22T00:34:26.346Z,9.00
2023-02-22T00:37:00.394Z,8.97
2023-02-22T00:39:28.814Z,9.70
2023-02-22T00:42:03.409Z,8.30
2023-02-22T00:44:30.739Z,9.10
2023-02-22T00:47:04.372Z,7.63
2023-02-22T00:49:31.845Z,9.60
2023-02-22T00:52:06.389Z,9.40
2023-02-22T00:54:40.372Z,11.60
2023-02-22T00:57:14.388Z,7.83
2023-02-22T00:59:41.660Z,5.20
2023-02-22T01:02:16.390Z,4.57
2023-02-22T01:04:43.971Z,7.87
2023-02-22T01:07:18.416Z,5.03
2023-02-22T01:09:53.705Z,5.40
2023-02-22T01:12:27.408Z,8.30
2023-02-22T01:14:57.018Z,7.20
2023-02-22T01:17:33.576Z,4.57
2023-02-22T01:20:00.833Z,3.50
2023-02-22T01:22:34.559Z,3.73
2023-02-22T01:25:08.564Z,7.67
2023-02-22T01:27:43.560Z,7.03
2023-02-22T01:30:19.637Z,5.50
2023-02-22T01:32:53.578Z,4.43
2023-02-22T01:35:34.581Z,6.47
2023-02-22T01:38:08.610Z,5.60
2023-02-22T01:40:39.753Z,7.63
2023-02-22T01:43:22.574Z,6.10
2023-02-22T01:45:55.731Z,3.00
2023-02-22T01:48:48.603Z,3.90
2023-02-22T01:51:27.640Z,4.37
2023-02-22T01:54:05.909Z,9.87
2023-02-22T01:56:43.644Z,4.30
2023-02-22T01:59:19.653Z,3.13
2023-02-22T02:01:53.655Z,4.57
2023-02-22T02:04:28.354Z,4.40
2023-02-22T02:07:06.661Z,5.13
2023-02-22T02:09:40.338Z,4.10
2023-02-22T02:12:18.828Z,4.60
2023-02-22T02:14:52.628Z,5.80
2023-02-22T02:17:28.665Z,4.77
2023-02-22T02:20:08.673Z,2.73
2023-02-22T02:23:00.963Z,5.30
2023-02-22T02:26:15.720Z,4.40
2023-02-22T02:29:26.660Z,7.90
2023-02-22T02:32:05.375Z,4.77
2023-02-22T02:35:08.675Z,4.30
2023-02-22T02:38:01.689Z,4.57
2023-02-22T02:41:02.067Z,3.00
2023-02-22T02:44:01.924Z,3.23
2023-02-22T02:47:06.665Z,3.33
2023-02-22T02:50:04.697Z,3.23
2023-02-22T02:52:34.566Z,3.37
2023-02-22T02:55:10.722Z,4.17
2023-02-22T02:57:41.449Z,3.53
2023-02-22T03:00:31.717Z,5.20
2023-02-22T03:03:33.446Z,4.50
2023-02-22T03:06:28.677Z,3.10
2023-02-22T03:09:17.983Z,3.43
2023-02-22T03:12:09.667Z,4.23
2023-02-22T03:15:06.683Z,2.67
2023-02-22T03:18:09.711Z,5.70
2023-02-22T03:21:12.690Z,4.60
2023-02-22T03:23:55.654Z,4.00
2023-02-22T03:26:38.678Z,3.87
2023-02-22T03:29:16.677Z,5.83
2023-02-22T03:32:02.741Z,2.57
2023-02-22T03:34:43.664Z,7.60
2023-02-22T03:37:40.711Z,4.43
2023-02-22T03:40:14.070Z,4.07
2023-02-22T03:42:55.726Z,4.03
2023-02-22T03:45:26.131Z,4.67
2023-02-22T03:48:09.637Z,5.63
2023-02-22T03:50:39.358Z,6.87
2023-02-22T03:53:14.282Z,7.60
2023-02-22T03:55:41.853Z,4.93
2023-02-22T03:58:18.706Z,6.30
2023-02-22T04:00:46.128Z,3.13
2023-02-22T04:03:28.689Z,6.07
2023-02-22T04:05:56.013Z,4.13
2023-02-22T04:08:30.688Z,3.67
2023-02-22T04:10:58.726Z,4.60
2023-02-22T04:13:34.933Z,3.70
2023-02-22T04:16:02.521Z,3.87
2023-02-22T04:18:36.941Z,3.97
2023-02-22T04:21:04.986Z,3.83
2023-02-22T04:23:32.490Z,4.33
2023-02-22T04:26:06.982Z,5.10
2023-02-22T04:28:34.870Z,3.83
2023-02-22T04:31:09.044Z,3.73
2023-02-22T04:33:42.936Z,3.80
2023-02-22T04:36:18.046Z,4.97
2023-02-22T04:38:51.955Z,7.33
2023-02-22T04:41:27.031Z,3.83
2023-02-22T04:43:54.468Z,2.90
2023-02-22T04:46:28.994Z,4.07
2023-02-22T04:48:57.790Z,3.40
2023-02-22T04:51:32.167Z,3.67
2023-02-22T04:53:59.526Z,4.03
2023-02-22T04:56:33.004Z,3.23
2023-02-22T04:59:00.328Z,3.57
2023-02-22T05:01:41.964Z,2.87
2023-02-22T05:04:16.089Z,2.40
2023-02-22T05:06:56.980Z,2.20
2023-02-22T05:09:30.988Z,3.60
2023-02-22T05:12:05.025Z,4.33
2023-02-22T05:14:32.547Z,3.10
2023-02-22T05:17:07.961Z,2.90
2023-02-22T05:19:41.971Z,2.87
2023-02-22T05:22:09.670Z,2.10
2023-02-22T05:24:37.232Z,2.70
2023-02-22T05:27:10.984Z,2.37
2023-02-22T05:29:38.806Z,2.43
2023-02-22T05:32:13.044Z,2.50
2023-02-22T05:34:41.582Z,3.93
2023-02-22T05:37:15.007Z,1.90
2023-02-22T05:39:42.731Z,2.00
2023-02-22T05:42:17.007Z,2.03
2023-02-22T05:44:44.345Z,3.30
2023-02-22T05:47:17.964Z,2.63
2023-02-22T05:49:45.280Z,1.53
2023-02-22T05:52:18.976Z,1.53
2023-02-22T05:54:52.995Z,1.80
2023-02-22T05:57:20.315Z,2.83
2023-02-22T05:59:54.031Z,3.33
2023-02-22T06:02:27.939Z,4.73
2023-02-22T06:05:09.069Z,4.03
2023-02-22T06:07:36.442Z,1.83
2023-02-22T06:10:10.990Z,1.50
2023-02-22T06:12:45.010Z,3.63
2023-02-22T06:15:20.995Z,2.53
2023-02-22T06:17:48.996Z,1.67
2023-02-22T06:20:25.992Z,2.57
2023-02-22T06:29:08.988Z,1.27
2023-02-22T06:31:37.173Z,1.57
2023-02-22T06:34:11.047Z,1.17
2023-02-22T06:36:38.478Z,1.33
2023-02-22T06:39:18.148Z,1.90
2023-02-22T06:41:56.581Z,2.40
2023-02-22T06:44:31.127Z,2.27
2023-02-22T06:47:07.466Z,7.73
2023-02-22T06:49:35.876Z,1.47
2023-02-22T06:54:56.431Z,5.93
2023-02-22T06:57:37.405Z,1.53
2023-02-22T07:00:06.975Z,2.27
2023-02-22T07:02:41.734Z,2.30
2023-02-22T07:05:12.610Z,2.40
2023-02-22T07:07:46.696Z,2.15
2023-02-22T07:10:24.728Z,1.57
2023-02-22T07:12:58.736Z,1.53
2023-02-22T07:15:34.730Z,1.97
2023-02-22T07:18:08.712Z,1.87
2023-02-22T07:20:42.711Z,1.80
2023-02-22T07:23:16.692Z,4.27
2023-02-22T07:25:50.734Z,3.13
2023-02-22T07:28:18.336Z,1.53
2023-02-22T07:30:52.695Z,2.97
2023-02-22T07:33:26.697Z,2.10
2023-02-22T07:36:00.703Z,1.50
2023-02-22T07:38:35.725Z,1.77
2023-02-22T07:41:09.710Z,2.13
2023-02-22T07:43:37.177Z,1.05
2023-02-22T07:46:10.772Z,1.20
2023-02-22T07:48:45.699Z,1.70
2023-02-22T07:51:22.767Z,1.50
2023-02-22T07:54:03.776Z,3.47
2023-02-22T07:56:44.754Z,2.63
2023-02-22T07:59:18.737Z,1.25
2023-02-22T08:01:56.693Z,0.98
2023-02-22T08:04:24.243Z,2.92
2023-02-22T08:06:57.776Z,2.63
2023-02-22T08:09:31.749Z,3.35
2023-02-22T08:12:05.759Z,3.13
2023-02-22T08:14:39.751Z,3.10
2023-02-22T08:17:08.792Z,3.10
2023-02-22T08:19:42.730Z,2.58
2023-02-22T08:22:16.737Z,2.40
2023-02-22T08:24:51.802Z,3.28
2023-02-22T08:27:27.914Z,2.78
2023-02-22T08:30:02.804Z,3.47
2023-02-22T08:32:36.808Z,3.17
2023-02-22T08:35:04.461Z,5.28
2023-02-22T08:37:38.788Z,2.92
2023-02-22T08:40:14.738Z,3.30
2023-02-22T08:42:42.427Z,4.80
2023-02-22T08:45:17.715Z,3.80
2023-02-22T08:47:45.801Z,1.98
2023-02-22T08:50:32.714Z,3.40
2023-02-22T08:53:08.706Z,2.70
2023-02-22T08:55:51.737Z,2.58
2023-02-22T08:58:41.717Z,5.72
2023-02-22T09:01:32.701Z,2.28
2023-02-22T09:04:07.770Z,5.55
2023-02-22T09:06:41.693Z,2.92
2023-02-22T09:09:15.773Z,3.90
2023-02-22T09:11:43.075Z,3.78
2023-02-22T09:14:16.742Z,4.53
2023-02-22T09:16:48.402Z,4.78
2023-02-22T09:19:22.794Z,2.30
2023-02-22T09:22:04.731Z,3.53
2023-02-22T09:24:32.170Z,3.47
2023-02-22T09:27:06.777Z,4.60
2023-02-22T09:29:34.281Z,4.05
2023-02-22T09:32:07.853Z,5.20
2023-02-22T09:34:41.744Z,4.53
2023-02-22T09:37:09.103Z,6.50
2023-02-22T09:39:43.833Z,2.88
2023-02-22T09:42:40.746Z,5.88
2023-02-22T09:45:54.834Z,4.07
2023-02-22T09:48:25.380Z,3.70
2023-02-22T09:51:04.718Z,5.80
2023-02-22T09:54:01.734Z,4.57
2023-02-22T09:56:37.811Z,6.80
2023-02-22T09:59:07.913Z,7.45
2023-02-22T10:01:53.747Z,6.32
2023-02-22T10:04:44.925Z,7.00
2023-02-22T10:07:43.736Z,7.85
2023-02-22T10:10:20.817Z,5.75
2023-02-22T10:13:12.765Z,4.85
2023-02-22T10:16:17.558Z,5.28
2023-02-22T10:19:06.754Z,4.85
2023-02-22T10:21:53.764Z,7.13
2023-02-22T10:24:48.799Z,5.97
2023-02-22T10:27:29.778Z,8.05
2023-02-22T10:30:24.614Z,6.90
2023-02-22T10:33:23.747Z,7.13
2023-02-22T10:35:53.715Z,8.93
2023-02-22T10:38:36.148Z,4.40
2023-02-22T10:41:26.108Z,6.75
2023-02-22T10:43:53.601Z,6.03
2023-02-22T10:46:36.101Z,7.55
2023-02-22T10:49:09.106Z,5.38
2023-02-22T10:51:43.161Z,6.15
2023-02-22T10:54:31.200Z,5.70
2023-02-22T10:57:12.185Z,3.85
2023-02-22T10:59:41.162Z,6.50
2023-02-22T11:02:44.179Z,7.90
2023-02-22T11:05:37.876Z,6.03
2023-02-22T11:08:27.151Z,6.57
2023-02-22T11:11:03.376Z,5.85
2023-02-22T11:13:45.160Z,7.80
2023-02-22T11:16:24.949Z,7.97
2023-02-22T11:19:15.125Z,5.68
2023-02-22T11:21:43.449Z,5.75
2023-02-22T11:24:21.133Z,7.20
2023-02-22T11:26:56.295Z,10.23
2023-02-22T11:29:38.179Z,12.68
2023-02-22T11:32:22.153Z,15.75
2023-02-22T11:35:08.825Z,7.20
2023-02-22T11:37:46.175Z,11.23
2023-02-22T11:40:28.205Z,6.47
2023-02-22T11:43:19.611Z,4.90
2023-02-22T11:46:10.227Z,6.80
2023-02-22T11:48:39.857Z,5.00
2023-02-22T11:51:23.213Z,5.13
2023-02-22T11:54:26.223Z,5.82
2023-02-22T11:57:28.256Z,5.95
2023-02-22T12:00:01.378Z,5.82
2023-02-22T12:02:57.410Z,5.68
2023-02-22T12:05:59.527Z,6.63
2023-02-22T12:09:11.259Z,6.60
2023-02-22T12:12:31.154Z,7.45
2023-02-22T12:15:34.262Z,6.55
2023-02-22T12:18:22.683Z,7.70
2023-02-22T12:21:20.226Z,6.32
2023-02-22T12:23:56.467Z,6.22
2023-02-22T12:26:48.248Z,9.35
2023-02-22T12:29:33.249Z,5.47
2023-02-22T12:32:24.341Z,6.32
2023-02-22T12:35:20.754Z,7.15
2023-02-22T12:38:19.314Z,8.38
2023-02-22T12:41:14.341Z,6.43
2023-02-22T12:44:05.601Z,8.95
2023-02-22T12:46:56.834Z,7.47
2023-02-22T12:49:40.980Z,6.45
2023-02-22T12:52:22.074Z,7.68
2023-02-22T12:55:19.027Z,5.88
2023-02-22T12:58:09.015Z,8.25
2023-02-22T13:00:45.342Z,13.32
2023-02-22T13:03:30.972Z,8.23
2023-02-22T13:06:37.485Z,7.28
2023-02-22T13:09:30.040Z,7.43
2023-02-22T13:12:39.986Z,6.72
2023-02-22T13:15:29.016Z,6.53
2023-02-22T13:18:10.573Z,10.25
2023-02-22T13:21:10.013Z,7.93
2023-02-22T13:23:55.650Z,10.18
2023-02-22T13:26:45.021Z,8.45
2023-02-22T13:29:21.760Z,10.55
2023-02-22T13:32:06.103Z,9.50
2023-02-22T13:35:02.007Z,9.55
2023-02-22T13:37:47.001Z,7.28
2023-02-22T13:41:01.704Z,8.45
2023-02-22T13:43:44.092Z,9.20
2023-02-22T13:46:54.970Z,8.07
2023-02-22T13:49:41.058Z,5.15
2023-02-22T13:52:27.005Z,8.00
2023-02-22T13:55:24.390Z,7.85
2023-02-22T13:58:11.072Z,7.88
2023-02-22T14:00:49.306Z,7.40
2023-02-22T14:03:31.117Z,8.38
2023-02-22T14:06:06.970Z,6.57
2023-02-22T14:08:41.952Z,10.18
2023-02-22T14:11:24.999Z,7.50
2023-02-22T14:14:04.008Z,10.95
2023-02-22T14:16:33.950Z,12.35
2023-02-22T14:19:16.017Z,8.23
2023-02-22T14:22:11.021Z,12.18
2023-02-22T14:24:51.997Z,8.52
2023-02-22T14:27:20.658Z,9.20
2023-02-22T14:30:13.028Z,7.68
2023-02-22T14:32:40.696Z,13.73
2023-02-22T14:35:30.069Z,8.98
2023-02-22T14:38:04.636Z,10.57
2023-02-22T14:40:43.047Z,9.75
2023-02-22T14:43:19.966Z,7.95
2023-02-22T14:46:07.077Z,12.10
2023-02-22T14:48:39.636Z,8.82
2023-02-22T14:51:26.846Z,10.32
2023-02-22T14:54:04.644Z,11.93
2023-02-22T14:56:56.001Z,8.98
2023-02-22T14:59:33.054Z,9.02
2023-02-22T15:02:19.303Z,14.40
2023-02-22T15:04:55.864Z,8.82
2023-02-22T15:07:35.309Z,9.88
2023-02-22T15:10:17.768Z,11.80
2023-02-22T15:13:15.326Z,11.43
2023-02-22T15:15:54.897Z,10.95
2023-02-22T15:33:03.594Z,10.68
2023-02-22T15:35:39.940Z,10.18
2023-02-22T15:38:14.317Z,9.98
2023-02-22T15:40:49.907Z,11.40
2023-02-22T15:43:30.928Z,10.23
2023-02-22T15:46:06.020Z,10.23
2023-02-22T15:48:37.223Z,14.18
2023-02-22T15:51:19.365Z,9.20
2023-02-22T15:53:49.506Z,9.95
2023-02-22T15:56:41.864Z,14.00
2023-02-22T15:59:18.832Z,7.85
2023-02-22T16:01:56.908Z,8.93
2023-02-22T16:04:36.917Z,18.48
2023-02-22T16:07:23.911Z,9.13
2023-02-22T16:09:52.362Z,8.35
2023-02-22T16:12:28.902Z,10.45
2023-02-22T16:14:56.712Z,9.00
2023-02-22T16:18:01.051Z,10.30
2023-02-22T16:20:38.889Z,11.63
2023-02-22T16:23:32.888Z,10.07
2023-02-22T16:26:31.887Z,6.43
2023-02-22T16:29:07.970Z,7.45
2023-02-22T16:31:37.907Z,8.57
2023-02-22T16:34:14.891Z,9.50
2023-02-22T16:36:55.886Z,12.98
2023-02-22T16:39:35.882Z,15.38
2023-02-22T16:42:05.434Z,12.77
2023-02-22T16:44:40.938Z,7.50
2023-02-22T16:47:12.141Z,11.98
2023-02-22T16:49:45.887Z,9.33
2023-02-22T16:52:13.719Z,10.83
2023-02-22T16:54:51.881Z,11.97
2023-02-22T16:57:35.901Z,12.87
2023-02-22T17:00:14.989Z,10.80
2023-02-22T17:02:48.903Z,15.80
2023-02-22T17:05:17.075Z,14.77
2023-02-22T17:07:50.894Z,17.90
2023-02-22T17:10:18.742Z,16.17
2023-02-22T17:12:54.162Z,18.40
2023-02-22T17:15:30.956Z,17.43
2023-02-22T17:18:06.022Z,17.37
2023-02-22T17:20:40.147Z,19.40
2023-02-22T17:23:15.882Z,23.93
2023-02-22T17:26:00.392Z,18.80
2023-02-22T17:28:28.932Z,19.47
2023-02-22T17:31:07.996Z,19.13
2023-02-22T17:33:37.457Z,22.27
2023-02-22T17:36:11.889Z,20.83
2023-02-22T17:38:48.903Z,18.07
2023-02-22T17:41:16.523Z,22.03
2023-02-22T17:43:49.870Z,22.67
2023-02-22T17:46:19.714Z,19.10
2023-02-22T17:49:00.910Z,19.53
2023-02-22T17:51:34.925Z,17.00
2023-02-22T17:54:10.384Z,17.23
2023-02-22T17:56:45.038Z,18.73
2023-02-22T17:59:18.943Z,17.83
2023-02-22T18:01:54.638Z,16.73
2023-02-22T18:04:30.070Z,20.80
2023-02-22T18:06:57.409Z,19.30
2023-02-22T18:09:30.998Z,23.63
2023-02-22T18:12:04.896Z,18.60
2023-02-22T18:14:38.906Z,18.73
2023-02-22T18:17:13.868Z,20.37
2023-02-22T18:19:42.069Z,20.03
2023-02-22T18:22:16.904Z,22.00
2023-02-22T18:24:44.674Z,25.47
2023-02-22T18:27:21.412Z,27.17
2023-02-22T18:29:48.686Z,19.87
2023-02-22T18:32:22.995Z,21.53
2023-02-22T18:34:56.893Z,20.97
2023-02-22T18:37:34.973Z,20.17
2023-02-22T18:40:03.631Z,24.13
2023-02-22T18:42:37.931Z,20.33
2023-02-22T18:45:07.348Z,19.50
2023-02-22T18:47:50.216Z,23.70
2023-02-22T18:50:24.983Z,20.40
2023-02-22T18:52:58.887Z,24.03
2023-02-22T18:55:32.904Z,18.40
2023-02-22T18:58:06.989Z,24.77
2023-02-22T19:00:41.920Z,27.43
2023-02-22T19:03:17.042Z,18.30
2023-02-22T19:05:44.402Z,20.47
2023-02-22T19:08:17.934Z,20.73
2023-02-22T19:10:51.964Z,22.80
2023-02-22T19:13:25.892Z,21.90
2023-02-22T19:15:53.194Z,21.87
2023-02-22T19:18:27.996Z,21.80
2023-02-22T19:21:03.553Z,23.87
2023-02-22T19:23:39.879Z,24.30
2023-02-22T19:26:16.037Z,27.27
2023-02-22T19:28:50.884Z,26.50
2023-02-22T19:31:36.969Z,24.93
2023-02-22T19:34:17.965Z,21.80
2023-02-22T19:36:52.946Z,31.53
2023-02-22T19:39:27.979Z,25.00
2023-02-22T19:42:02.985Z,27.47
2023-02-22T19:44:30.433Z,24.07
2023-02-22T19:47:05.930Z,28.53
2023-02-22T19:49:33.337Z,22.50
2023-02-22T19:52:09.928Z,18.03
2023-02-22T19:54:43.971Z,20.93
2023-02-22T19:57:22.584Z,20.37
2023-02-22T19:59:56.944Z,19.13
2023-02-22T20:02:33.933Z,18.03
2023-02-22T20:05:07.939Z,18.00
2023-02-22T20:07:41.970Z,21.03
2023-02-22T20:10:09.812Z,24.83
2023-02-22T20:12:43.949Z,19.37
2023-02-22T20:15:13.112Z,27.23
2023-02-22T20:17:43.882Z,24.27
2023-02-22T20:20:20.204Z,24.07
2023-02-22T20:22:54.014Z,27.73
2023-02-22T20:25:23.904Z,23.70
2023-02-22T20:27:58.992Z,22.40
2023-02-22T20:30:28.687Z,23.93
2023-02-22T20:33:05.507Z,27.13
2023-02-22T20:35:34.052Z,21.33
2023-02-22T20:38:10.419Z,19.53
2023-02-22T20:40:41.163Z,27.70
2023-02-22T20:43:16.217Z,21.47
2023-02-22T20:45:50.056Z,20.77
2023-02-22T20:48:17.462Z,20.30
2023-02-22T20:50:44.892Z,19.03
2023-02-22T20:53:18.975Z,21.93
2023-02-22T20:56:06.990Z,19.77
2023-02-22T20:58:40.975Z,16.87
2023-02-22T21:01:13.849Z,14.33
2023-02-22T21:03:50.125Z,17.07
2023-02-22T21:06:21.379Z,20.47
2023-02-22T21:09:03.957Z,16.70
2023-02-22T21:11:32.115Z,18.27
2023-02-22T21:14:08.088Z,18.97
2023-02-22T21:16:42.982Z,18.23
2023-02-22T21:19:12.058Z,26.47
2023-02-22T21:21:46.965Z,22.60
2023-02-22T21:24:22.127Z,29.37
2023-02-22T21:26:49.609Z,25.63
2023-02-22T21:29:25.955Z,28.17
2023-02-22T21:31:53.565Z,27.23
2023-02-22T21:34:29.954Z,31.63
2023-02-22T21:36:57.542Z,23.97
2023-02-22T21:39:37.955Z,27.47
2023-02-22T21:42:07.205Z,25.80
2023-02-22T21:44:34.627Z,21.17
2023-02-22T21:47:09.003Z,25.10
2023-02-22T21:49:44.925Z,24.87
2023-02-22T21:52:19.972Z,23.70
2023-02-22T21:54:53.935Z,23.53
2023-02-22T21:57:35.979Z,22.97
2023-02-22T22:00:18.957Z,25.60
2023-02-22T22:02:48.475Z,20.30
2023-02-22T22:05:30.012Z,19.47
2023-02-22T22:08:03.966Z,19.23
2023-02-22T22:10:39.975Z,23.30
2023-02-22T22:13:09.124Z,23.40
2023-02-22T22:15:43.987Z,30.63
2023-02-22T22:18:18.983Z,27.43
2023-02-22T22:21:00.476Z,27.73
2023-02-22T22:23:27.873Z,30.77
2023-02-22T22:26:08.987Z,30.87
2023-02-22T22:28:43.956Z,29.67
2023-02-22T22:31:19.437Z,27.67
2023-02-22T22:33:47.767Z,35.27
2023-02-22T22:36:27.952Z,30.70
2023-02-22T22:38:58.710Z,38.10
2023-02-22T22:41:34.952Z,38.00
2023-02-22T22:44:08.930Z,32.37
2023-02-22T22:46:47.975Z,34.07
2023-02-22T22:49:16.344Z,38.30
2023-02-22T22:51:47.375Z,35.67
2023-02-22T22:54:21.972Z,39.63
2023-02-22T22:56:57.147Z,43.40
2023-02-22T22:59:31.970Z,41.37
2023-02-22T23:02:05.933Z,44.07
2023-02-22T23:04:40.956Z,45.07
2023-02-22T23:07:08.492Z,49.43
2023-02-22T23:09:45.927Z,44.57
2023-02-22T23:12:25.981Z,47.10
2023-02-22T23:15:00.022Z,48.50
2023-02-22T23:17:31.469Z,52.37
2023-02-22T23:20:06.986Z,46.33
2023-02-22T23:22:34.281Z,46.17
2023-02-22T23:25:08.095Z,44.40
2023-02-22T23:27:38.500Z,52.40
2023-02-22T23:30:12.962Z,57.57
2023-02-22T23:32:47.984Z,45.17
2023-02-22T23:35:19.105Z,52.27
2023-02-22T23:38:03.986Z,49.27
2023-02-22T23:40:31.462Z,53.27
2023-02-22T23:43:10.042Z,51.63
2023-02-22T23:45:41.125Z,52.47
2023-02-22T23:48:14.944Z,52.87
2023-02-22T23:50:49.008Z,50.80
2023-02-22T23:53:17.370Z,55.10
2023-02-22T23:55:53.075Z,51.30
2023-02-22T23:58:27.831Z,46.87
